sensor_id;sensor_type;location;lat;lon;timestamp;temperature;humidity
70475;DHT22;57944;48.722;9.316;2022-08-21T00:00:25;13.30;99.90
70475;DHT22;57944;48.722;9.316;2022-08-21T00:03:01;13.20;99.90
70475;DHT22;57944;48.722;9.316;2022-08-21T00:05:40;13.20;99.90
70475;DHT22;57944;48.722;9.316;2022-08-21T00:08:12;13.20;99.90
70475;DHT22;57944;48.722;9.316;2022-08-21T00:10:43;13.10;99.90
70475;DHT22;57944;48.722;9.316;2022-08-21T00:13:14;13.10;99.90
70475;DHT22;57944;48.722;9.316;2022-08-21T00:15:47;13.10;99.90
70475;DHT22;57944;48.722;9.316;2022-08-21T00:18:19;13.10;99.90
70475;DHT22;57944;48.722;9.316;2022-08-21T00:20:52;13.10;99.90
70475;DHT22;57944;48.722;9.316;2022-08-21T00:23:22;13.10;99.90
70475;DHT22;57944;48.722;9.316;2022-08-21T00:25:52;13.10;99.90
70475;DHT22;57944;48.722;9.316;2022-08-21T00:28:23;13.00;99.90
70475;DHT22;57944;48.722;9.316;2022-08-21T00:30:53;13.00;99.90
70475;DHT22;57944;48.722;9.316;2022-08-21T00:33:23;13.00;99.90
70475;DHT22;57944;48.722;9.316;2022-08-21T00:35:56;13.00;99.90
70475;DHT22;57944;48.722;9.316;2022-08-21T00:38:27;13.00;99.90
70475;DHT22;57944;48.722;9.316;2022-08-21T00:41:01;13.00;99.90
70475;DHT22;57944;48.722;9.316;2022-08-21T00:43:53;13.10;99.90
70475;DHT22;57944;48.722;9.316;2022-08-21T00:46:24;13.00;99.90
70475;DHT22;57944;48.722;9.316;2022-08-21T00:48:55;12.90;99.90
70475;DHT22;57944;48.722;9.316;2022-08-21T00:51:33;12.90;99.90
70475;DHT22;57944;48.722;9.316;2022-08-21T00:54:07;12.90;99.90
70475;DHT22;57944;48.722;9.316;2022-08-21T00:56:46;12.90;99.90
70475;DHT22;57944;48.722;9.316;2022-08-21T00:59:21;12.80;99.90
70475;DHT22;57944;48.722;9.316;2022-08-21T01:01:53;12.80;99.90
70475;DHT22;57944;48.722;9.316;2022-08-21T01:04:23;12.80;99.90
70475;DHT22;57944;48.722;9.316;2022-08-21T01:06:56;12.80;99.90
70475;DHT22;57944;48.722;9.316;2022-08-21T01:09:26;12.70;99.90
70475;DHT22;57944;48.722;9.316;2022-08-21T01:11:57;12.70;99.90
70475;DHT22;57944;48.722;9.316;2022-08-21T01:14:27;12.70;99.90
70475;DHT22;57944;48.722;9.316;2022-08-21T01:16:59;12.70;99.90
70475;DHT22;57944;48.722;9.316;2022-08-21T01:19:31;12.60;99.90
70475;DHT22;57944;48.722;9.316;2022-08-21T01:22:05;12.50;99.90
70475;DHT22;57944;48.722;9.316;2022-08-21T01:24:36;12.50;99.90
70475;DHT22;57944;48.722;9.316;2022-08-21T01:27:06;12.50;99.90
70475;DHT22;57944;48.722;9.316;2022-08-21T01:29:41;12.50;99.90
70475;DHT22;57944;48.722;9.316;2022-08-21T01:32:16;12.50;99.90
70475;DHT22;57944;48.722;9.316;2022-08-21T01:34:49;12.50;99.90
70475;DHT22;57944;48.722;9.316;2022-08-21T01:37:24;12.50;99.90
70475;DHT22;57944;48.722;9.316;2022-08-21T01:39:54;12.50;99.90
70475;DHT22;57944;48.722;9.316;2022-08-21T01:42:25;12.50;99.90
70475;DHT22;57944;48.722;9.316;2022-08-21T01:44:55;12.50;99.90
70475;DHT22;57944;48.722;9.316;2022-08-21T01:47:26;12.40;99.90
70475;DHT22;57944;48.722;9.316;2022-08-21T01:49:56;12.30;99.90
70475;DHT22;57944;48.722;9.316;2022-08-21T01:52:28;12.20;99.90
70475;DHT22;57944;48.722;9.316;2022-08-21T01:54:59;12.30;99.90
70475;DHT22;57944;48.722;9.316;2022-08-21T01:57:29;12.30;99.90
70475;DHT22;57944;48.722;9.316;2022-08-21T01:59:59;12.20;99.90
70475;DHT22;57944;48.722;9.316;2022-08-21T02:02:37;12.30;99.90
70475;DHT22;57944;48.722;9.316;2022-08-21T02:05:10;12.30;99.90
70475;DHT22;57944;48.722;9.316;2022-08-21T02:07:47;12.30;99.90
70475;DHT22;57944;48.722;9.316;2022-08-21T02:10:21;12.40;99.90
70475;DHT22;57944;48.722;9.316;2022-08-21T02:12:53;12.40;99.90
70475;DHT22;57944;48.722;9.316;2022-08-21T02:15:23;12.40;99.90
70475;DHT22;57944;48.722;9.316;2022-08-21T02:17:55;12.40;99.90
70475;DHT22;57944;48.722;9.316;2022-08-21T02:20:29;12.40;99.90
70475;DHT22;57944;48.722;9.316;2022-08-21T02:23:05;12.30;99.90
70475;DHT22;57944;48.722;9.316;2022-08-21T02:25:37;12.20;99.90
70475;DHT22;57944;48.722;9.316;2022-08-21T02:28:10;12.20;99.90
70475;DHT22;57944;48.722;9.316;2022-08-21T02:30:48;12.30;99.90
70475;DHT22;57944;48.722;9.316;2022-08-21T02:33:19;12.30;99.90
70475;DHT22;57944;48.722;9.316;2022-08-21T02:35:49;12.30;99.90
70475;DHT22;57944;48.722;9.316;2022-08-21T02:38:25;12.40;99.90
70475;DHT22;57944;48.722;9.316;2022-08-21T02:40:57;12.40;99.90
70475;DHT22;57944;48.722;9.316;2022-08-21T02:43:28;12.40;99.90
70475;DHT22;57944;48.722;9.316;2022-08-21T02:45:58;12.30;99.90
70475;DHT22;57944;48.722;9.316;2022-08-21T02:48:32;12.30;99.90
70475;DHT22;57944;48.722;9.316;2022-08-21T02:51:06;12.30;99.90
70475;DHT22;57944;48.722;9.316;2022-08-21T02:53:41;12.30;99.90
70475;DHT22;57944;48.722;9.316;2022-08-21T02:56:14;12.30;99.90
70475;DHT22;57944;48.722;9.316;2022-08-21T02:58:47;12.30;99.90
70475;DHT22;57944;48.722;9.316;2022-08-21T03:01:20;12.30;99.90
70475;DHT22;57944;48.722;9.316;2022-08-21T03:03:50;12.30;99.90
70475;DHT22;57944;48.722;9.316;2022-08-21T03:06:21;12.30;99.90
70475;DHT22;57944;48.722;9.316;2022-08-21T03:08:55;12.20;99.90
70475;DHT22;57944;48.722;9.316;2022-08-21T03:11:25;12.20;99.90
70475;DHT22;57944;48.722;9.316;2022-08-21T03:13:55;12.20;99.90
70475;DHT22;57944;48.722;9.316;2022-08-21T03:16:25;12.20;99.90
70475;DHT22;57944;48.722;9.316;2022-08-21T03:19:00;12.10;99.90
70475;DHT22;57944;48.722;9.316;2022-08-21T03:21:31;12.00;99.90
70475;DHT22;57944;48.722;9.316;2022-08-21T03:24:05;12.00;99.90
70475;DHT22;57944;48.722;9.316;2022-08-21T03:26:36;12.00;99.90
70475;DHT22;57944;48.722;9.316;2022-08-21T03:29:07;12.00;99.90
70475;DHT22;57944;48.722;9.316;2022-08-21T03:31:37;12.10;99.90
70475;DHT22;57944;48.722;9.316;2022-08-21T03:34:07;12.10;99.90
70475;DHT22;57944;48.722;9.316;2022-08-21T03:36:37;12.10;99.90
70475;DHT22;57944;48.722;9.316;2022-08-21T03:39:10;12.10;99.90
70475;DHT22;57944;48.722;9.316;2022-08-21T03:41:40;12.20;99.90
70475;DHT22;57944;48.722;9.316;2022-08-21T03:44:10;12.20;99.90
70475;DHT22;57944;48.722;9.316;2022-08-21T03:46:40;12.10;99.90
70475;DHT22;57944;48.722;9.316;2022-08-21T03:49:10;12.10;99.90
70475;DHT22;57944;48.722;9.316;2022-08-21T03:51:40;12.10;99.90
70475;DHT22;57944;48.722;9.316;2022-08-21T03:54:13;12.10;99.90
70475;DHT22;57944;48.722;9.316;2022-08-21T03:56:43;12.00;99.90
70475;DHT22;57944;48.722;9.316;2022-08-21T03:59:14;12.00;99.90
70475;DHT22;57944;48.722;9.316;2022-08-21T04:01:52;12.10;99.90
70475;DHT22;57944;48.722;9.316;2022-08-21T04:04:23;12.10;99.90
70475;DHT22;57944;48.722;9.316;2022-08-21T04:06:53;12.20;99.90
70475;DHT22;57944;48.722;9.316;2022-08-21T04:09:27;12.20;99.90
70475;DHT22;57944;48.722;9.316;2022-08-21T04:11:58;12.10;99.90
70475;DHT22;57944;48.722;9.316;2022-08-21T04:14:29;12.00;99.90
70475;DHT22;57944;48.722;9.316;2022-08-21T04:16:59;12.00;99.90
70475;DHT22;57944;48.722;9.316;2022-08-21T04:19:29;12.10;99.90
70475;DHT22;57944;48.722;9.316;2022-08-21T04:22:00;12.10;99.90
70475;DHT22;57944;48.722;9.316;2022-08-21T04:24:32;12.00;99.90
70475;DHT22;57944;48.722;9.316;2022-08-21T04:27:02;12.00;99.90
70475;DHT22;57944;48.722;9.316;2022-08-21T04:29:32;12.00;99.90
70475;DHT22;57944;48.722;9.316;2022-08-21T04:32:06;12.00;99.90
70475;DHT22;57944;48.722;9.316;2022-08-21T04:34:36;12.00;99.90
70475;DHT22;57944;48.722;9.316;2022-08-21T04:37:06;12.10;99.90
70475;DHT22;57944;48.722;9.316;2022-08-21T04:39:38;12.10;99.90
70475;DHT22;57944;48.722;9.316;2022-08-21T04:42:08;12.10;99.90
70475;DHT22;57944;48.722;9.316;2022-08-21T04:44:38;12.10;99.90
70475;DHT22;57944;48.722;9.316;2022-08-21T04:47:08;12.00;99.90
70475;DHT22;57944;48.722;9.316;2022-08-21T04:49:38;12.00;99.90
70475;DHT22;57944;48.722;9.316;2022-08-21T04:52:08;12.00;99.90
70475;DHT22;57944;48.722;9.316;2022-08-21T04:54:44;12.10;99.90
70475;DHT22;57944;48.722;9.316;2022-08-21T04:57:20;12.20;99.90
70475;DHT22;57944;48.722;9.316;2022-08-21T05:00:14;12.20;99.90
70475;DHT22;57944;48.722;9.316;2022-08-21T05:02:46;12.30;99.90
70475;DHT22;57944;48.722;9.316;2022-08-21T05:05:21;12.10;99.90
70475;DHT22;57944;48.722;9.316;2022-08-21T05:07:52;12.30;99.90
70475;DHT22;57944;48.722;9.316;2022-08-21T05:10:25;12.90;99.90
70475;DHT22;57944;48.722;9.316;2022-08-21T05:12:58;13.30;99.90
70475;DHT22;57944;48.722;9.316;2022-08-21T05:15:30;13.50;99.90
70475;DHT22;57944;48.722;9.316;2022-08-21T05:18:00;13.90;99.90
70475;DHT22;57944;48.722;9.316;2022-08-21T05:20:30;14.60;99.90
70475;DHT22;57944;48.722;9.316;2022-08-21T05:23:01;15.30;99.90
70475;DHT22;57944;48.722;9.316;2022-08-21T05:25:40;15.80;99.90
70475;DHT22;57944;48.722;9.316;2022-08-21T05:28:11;16.20;99.90
70475;DHT22;57944;48.722;9.316;2022-08-21T05:30:42;16.60;99.90
70475;DHT22;57944;48.722;9.316;2022-08-21T05:33:12;17.10;99.90
70475;DHT22;57944;48.722;9.316;2022-08-21T05:35:42;17.50;99.90
70475;DHT22;57944;48.722;9.316;2022-08-21T05:38:14;17.80;99.90
70475;DHT22;57944;48.722;9.316;2022-08-21T05:40:47;18.30;99.90
70475;DHT22;57944;48.722;9.316;2022-08-21T05:43:17;18.80;99.90
70475;DHT22;57944;48.722;9.316;2022-08-21T05:45:47;19.30;99.90
70475;DHT22;57944;48.722;9.316;2022-08-21T05:48:20;19.80;99.90
70475;DHT22;57944;48.722;9.316;2022-08-21T05:50:53;20.40;99.90
70475;DHT22;57944;48.722;9.316;2022-08-21T05:53:24;21.00;99.90
70475;DHT22;57944;48.722;9.316;2022-08-21T05:55:56;21.60;99.90
70475;DHT22;57944;48.722;9.316;2022-08-21T05:58:27;22.20;99.90
70475;DHT22;57944;48.722;9.316;2022-08-21T06:00:57;22.70;99.90
70475;DHT22;57944;48.722;9.316;2022-08-21T06:03:29;23.20;99.90
70475;DHT22;57944;48.722;9.316;2022-08-21T06:06:02;23.70;99.90
70475;DHT22;57944;48.722;9.316;2022-08-21T06:08:33;24.20;99.90
70475;DHT22;57944;48.722;9.316;2022-08-21T06:11:07;24.50;99.90
70475;DHT22;57944;48.722;9.316;2022-08-21T06:13:38;24.50;99.90
70475;DHT22;57944;48.722;9.316;2022-08-21T06:16:11;25.00;99.90
70475;DHT22;57944;48.722;9.316;2022-08-21T06:18:44;25.50;99.90
70475;DHT22;57944;48.722;9.316;2022-08-21T06:21:15;25.90;99.90
70475;DHT22;57944;48.722;9.316;2022-08-21T06:23:45;26.10;99.90
70475;DHT22;57944;48.722;9.316;2022-08-21T06:26:18;26.50;99.90
70475;DHT22;57944;48.722;9.316;2022-08-21T06:28:49;26.30;99.90
70475;DHT22;57944;48.722;9.316;2022-08-21T06:31:22;26.10;99.90
70475;DHT22;57944;48.722;9.316;2022-08-21T06:33:54;26.50;99.90
70475;DHT22;57944;48.722;9.316;2022-08-21T06:36:24;27.40;99.90
70475;DHT22;57944;48.722;9.316;2022-08-21T06:38:54;28.00;99.90
70475;DHT22;57944;48.722;9.316;2022-08-21T06:41:29;28.50;99.90
70475;DHT22;57944;48.722;9.316;2022-08-21T06:44:05;29.00;99.90
70475;DHT22;57944;48.722;9.316;2022-08-21T06:46:35;29.30;99.30
70475;DHT22;57944;48.722;9.316;2022-08-21T06:49:06;29.90;99.50
70475;DHT22;57944;48.722;9.316;2022-08-21T06:51:47;29.90;99.60
70475;DHT22;57944;48.722;9.316;2022-08-21T06:54:17;29.90;96.20
70475;DHT22;57944;48.722;9.316;2022-08-21T06:56:49;29.70;96.80
70475;DHT22;57944;48.722;9.316;2022-08-21T06:59:19;29.60;96.30
70475;DHT22;57944;48.722;9.316;2022-08-21T07:01:49;29.90;99.00
70475;DHT22;57944;48.722;9.316;2022-08-21T07:04:19;30.70;95.70
70475;DHT22;57944;48.722;9.316;2022-08-21T07:06:50;31.10;93.90
70475;DHT22;57944;48.722;9.316;2022-08-21T07:09:20;31.40;94.00
70475;DHT22;57944;48.722;9.316;2022-08-21T07:11:54;31.60;93.10
70475;DHT22;57944;48.722;9.316;2022-08-21T07:14:26;31.80;93.90
70475;DHT22;57944;48.722;9.316;2022-08-21T07:16:56;31.50;92.70
70475;DHT22;57944;48.722;9.316;2022-08-21T07:19:26;31.50;92.10
70475;DHT22;57944;48.722;9.316;2022-08-21T07:21:58;32.00;91.90
70475;DHT22;57944;48.722;9.316;2022-08-21T07:24:30;31.70;90.90
70475;DHT22;57944;48.722;9.316;2022-08-21T07:27:03;31.40;91.20
70475;DHT22;57944;48.722;9.316;2022-08-21T07:29:36;32.10;90.20
70475;DHT22;57944;48.722;9.316;2022-08-21T07:32:06;32.90;88.40
70475;DHT22;57944;48.722;9.316;2022-08-21T07:34:36;32.70;88.10
70475;DHT22;57944;48.722;9.316;2022-08-21T07:37:06;33.40;87.30
70475;DHT22;57944;48.722;9.316;2022-08-21T07:39:36;34.60;86.90
70475;DHT22;57944;48.722;9.316;2022-08-21T07:42:09;34.30;83.50
70475;DHT22;57944;48.722;9.316;2022-08-21T07:44:39;34.80;82.80
70475;DHT22;57944;48.722;9.316;2022-08-21T07:47:09;35.40;80.00
70475;DHT22;57944;48.722;9.316;2022-08-21T07:49:39;35.90;79.10
70475;DHT22;57944;48.722;9.316;2022-08-21T07:52:09;36.60;76.00
70475;DHT22;57944;48.722;9.316;2022-08-21T07:54:39;37.40;74.30
70475;DHT22;57944;48.722;9.316;2022-08-21T07:57:12;37.40;74.80
70475;DHT22;57944;48.722;9.316;2022-08-21T07:59:47;36.70;72.60
70475;DHT22;57944;48.722;9.316;2022-08-21T08:02:22;36.40;72.50
70475;DHT22;57944;48.722;9.316;2022-08-21T08:04:54;36.70;72.50
70475;DHT22;57944;48.722;9.316;2022-08-21T08:07:28;37.20;69.30
70475;DHT22;57944;48.722;9.316;2022-08-21T08:09:58;37.50;66.40
70475;DHT22;57944;48.722;9.316;2022-08-21T08:12:31;37.70;65.10
70475;DHT22;57944;48.722;9.316;2022-08-21T08:15:03;38.00;64.90
70475;DHT22;57944;48.722;9.316;2022-08-21T08:17:37;38.30;63.30
70475;DHT22;57944;48.722;9.316;2022-08-21T08:20:10;39.20;64.50
70475;DHT22;57944;48.722;9.316;2022-08-21T08:22:41;38.80;64.00
70475;DHT22;57944;48.722;9.316;2022-08-21T08:25:18;38.40;61.00
70475;DHT22;57944;48.722;9.316;2022-08-21T08:27:52;37.00;61.90
70475;DHT22;57944;48.722;9.316;2022-08-21T08:30:22;36.90;61.10
70475;DHT22;57944;48.722;9.316;2022-08-21T08:32:58;38.00;60.40
70475;DHT22;57944;48.722;9.316;2022-08-21T08:35:29;38.40;59.90
70475;DHT22;57944;48.722;9.316;2022-08-21T08:37:59;39.20;59.70
70475;DHT22;57944;48.722;9.316;2022-08-21T08:43:11;39.70;58.20
70475;DHT22;57944;48.722;9.316;2022-08-21T08:45:44;39.80;58.60
70475;DHT22;57944;48.722;9.316;2022-08-21T08:48:31;39.00;57.80
70475;DHT22;57944;48.722;9.316;2022-08-21T08:51:15;38.80;58.40
70475;DHT22;57944;48.722;9.316;2022-08-21T08:53:54;37.50;58.10
70475;DHT22;57944;48.722;9.316;2022-08-21T08:56:30;37.50;58.00
70475;DHT22;57944;48.722;9.316;2022-08-21T08:59:08;39.00;58.30
70475;DHT22;57944;48.722;9.316;2022-08-21T09:01:44;40.20;55.50
70475;DHT22;57944;48.722;9.316;2022-08-21T09:04:21;40.00;53.60
70475;DHT22;57944;48.722;9.316;2022-08-21T09:07:05;39.30;54.40
70475;DHT22;57944;48.722;9.316;2022-08-21T09:09:51;40.80;54.10
70475;DHT22;57944;48.722;9.316;2022-08-21T09:12:38;42.20;52.10
70475;DHT22;57944;48.722;9.316;2022-08-21T09:15:23;42.50;51.00
70475;DHT22;57944;48.722;9.316;2022-08-21T09:23:33;42.20;47.40
70475;DHT22;57944;48.722;9.316;2022-08-21T09:26:14;42.30;47.60
70475;DHT22;57944;48.722;9.316;2022-08-21T09:28:46;42.70;46.10
70475;DHT22;57944;48.722;9.316;2022-08-21T09:33:59;42.90;45.70
70475;DHT22;57944;48.722;9.316;2022-08-21T09:36:40;42.80;45.20
70475;DHT22;57944;48.722;9.316;2022-08-21T09:39:21;42.50;45.60
70475;DHT22;57944;48.722;9.316;2022-08-21T09:41:58;42.50;45.70
70475;DHT22;57944;48.722;9.316;2022-08-21T09:44:32;42.60;45.00
70475;DHT22;57944;48.722;9.316;2022-08-21T09:47:10;43.40;44.00
70475;DHT22;57944;48.722;9.316;2022-08-21T09:49:44;42.90;43.50
70475;DHT22;57944;48.722;9.316;2022-08-21T09:52:18;43.40;43.40
70475;DHT22;57944;48.722;9.316;2022-08-21T09:54:51;43.90;42.90
70475;DHT22;57944;48.722;9.316;2022-08-21T09:57:26;44.50;42.30
70475;DHT22;57944;48.722;9.316;2022-08-21T10:00:24;43.60;42.40
70475;DHT22;57944;48.722;9.316;2022-08-21T10:03:11;43.90;42.20
70475;DHT22;57944;48.722;9.316;2022-08-21T10:05:54;44.50;41.00
70475;DHT22;57944;48.722;9.316;2022-08-21T10:08:29;45.10;40.60
70475;DHT22;57944;48.722;9.316;2022-08-21T10:11:04;43.40;38.00
70475;DHT22;57944;48.722;9.316;2022-08-21T10:13:47;42.80;38.90
70475;DHT22;57944;48.722;9.316;2022-08-21T10:16:32;42.30;40.80
70475;DHT22;57944;48.722;9.316;2022-08-21T10:19:22;40.90;41.10
70475;DHT22;57944;48.722;9.316;2022-08-21T10:22:12;40.50;42.30
70475;DHT22;57944;48.722;9.316;2022-08-21T10:24:57;40.00;42.50
70475;DHT22;57944;48.722;9.316;2022-08-21T10:27:39;40.80;42.00
70475;DHT22;57944;48.722;9.316;2022-08-21T10:30:21;42.00;41.50
70475;DHT22;57944;48.722;9.316;2022-08-21T10:33:24;40.90;41.10
70475;DHT22;57944;48.722;9.316;2022-08-21T10:36:11;40.30;41.80
70475;DHT22;57944;48.722;9.316;2022-08-21T10:38:55;38.90;43.40
70475;DHT22;57944;48.722;9.316;2022-08-21T10:42:12;39.90;42.70
70475;DHT22;57944;48.722;9.316;2022-08-21T10:45:03;40.30;42.20
70475;DHT22;57944;48.722;9.316;2022-08-21T10:47:45;41.50;42.10
70475;DHT22;57944;48.722;9.316;2022-08-21T10:50:30;42.80;41.00
70475;DHT22;57944;48.722;9.316;2022-08-21T10:53:28;43.70;39.00
70475;DHT22;57944;48.722;9.316;2022-08-21T10:56:16;43.40;37.90
70475;DHT22;57944;48.722;9.316;2022-08-21T10:59:04;43.00;39.30
70475;DHT22;57944;48.722;9.316;2022-08-21T11:01:49;41.80;40.20
70475;DHT22;57944;48.722;9.316;2022-08-21T11:04:28;41.90;40.40
70475;DHT22;57944;48.722;9.316;2022-08-21T11:07:21;41.60;40.00
70475;DHT22;57944;48.722;9.316;2022-08-21T11:10:08;40.90;38.80
70475;DHT22;57944;48.722;9.316;2022-08-21T11:12:49;41.60;40.40
70475;DHT22;57944;48.722;9.316;2022-08-21T11:15:34;41.40;39.90
70475;DHT22;57944;48.722;9.316;2022-08-21T11:18:19;41.90;39.50
70475;DHT22;57944;48.722;9.316;2022-08-21T11:21:02;43.10;39.00
70475;DHT22;57944;48.722;9.316;2022-08-21T11:23:48;42.40;38.20
70475;DHT22;57944;48.722;9.316;2022-08-21T11:26:29;41.50;38.90
70475;DHT22;57944;48.722;9.316;2022-08-21T11:29:08;40.60;39.60
70475;DHT22;57944;48.722;9.316;2022-08-21T11:31:51;39.60;40.40
70475;DHT22;57944;48.722;9.316;2022-08-21T11:34:41;39.50;40.60
70475;DHT22;57944;48.722;9.316;2022-08-21T11:37:36;39.80;40.80
70475;DHT22;57944;48.722;9.316;2022-08-21T11:40:31;39.80;40.90
70475;DHT22;57944;48.722;9.316;2022-08-21T11:43:19;40.00;40.70
70475;DHT22;57944;48.722;9.316;2022-08-21T11:46:08;41.60;39.90
70475;DHT22;57944;48.722;9.316;2022-08-21T11:48:51;42.70;38.70
70475;DHT22;57944;48.722;9.316;2022-08-21T11:51:45;41.50;38.50
70475;DHT22;57944;48.722;9.316;2022-08-21T11:54:25;38.40;40.70
70475;DHT22;57944;48.722;9.316;2022-08-21T11:57:01;39.10;41.30
70475;DHT22;57944;48.722;9.316;2022-08-21T11:59:42;39.20;40.70
70475;DHT22;57944;48.722;9.316;2022-08-21T12:02:20;40.00;40.60
70475;DHT22;57944;48.722;9.316;2022-08-21T12:04:56;40.10;39.90
70475;DHT22;57944;48.722;9.316;2022-08-21T12:07:37;39.90;40.20
70475;DHT22;57944;48.722;9.316;2022-08-21T12:10:12;40.30;39.80
70475;DHT22;57944;48.722;9.316;2022-08-21T12:12:48;40.00;40.10
70475;DHT22;57944;48.722;9.316;2022-08-21T12:15:35;40.00;40.30
70475;DHT22;57944;48.722;9.316;2022-08-21T12:18:18;39.60;39.70
70475;DHT22;57944;48.722;9.316;2022-08-21T12:21:00;39.00;40.10
70475;DHT22;57944;48.722;9.316;2022-08-21T12:23:43;37.70;41.80
70475;DHT22;57944;48.722;9.316;2022-08-21T12:26:27;38.30;40.30
70475;DHT22;57944;48.722;9.316;2022-08-21T12:29:10;40.00;40.20
70475;DHT22;57944;48.722;9.316;2022-08-21T12:31:55;40.30;38.60
70475;DHT22;57944;48.722;9.316;2022-08-21T12:34:34;37.80;40.10
70475;DHT22;57944;48.722;9.316;2022-08-21T12:37:14;36.00;42.10
70475;DHT22;57944;48.722;9.316;2022-08-21T12:39:53;34.00;43.50
70475;DHT22;57944;48.722;9.316;2022-08-21T12:42:30;32.00;45.30
70475;DHT22;57944;48.722;9.316;2022-08-21T12:45:16;30.40;47.10
70475;DHT22;57944;48.722;9.316;2022-08-21T12:47:56;29.50;50.80
70475;DHT22;57944;48.722;9.316;2022-08-21T12:50:35;29.20;51.50
70475;DHT22;57944;48.722;9.316;2022-08-21T12:53:10;28.60;52.20
70475;DHT22;57944;48.722;9.316;2022-08-21T12:55:49;28.20;51.60
70475;DHT22;57944;48.722;9.316;2022-08-21T12:58:22;27.80;53.00
70475;DHT22;57944;48.722;9.316;2022-08-21T13:00:58;27.50;53.40
70475;DHT22;57944;48.722;9.316;2022-08-21T13:03:37;27.90;53.50
70475;DHT22;57944;48.722;9.316;2022-08-21T13:06:13;29.10;52.10
70475;DHT22;57944;48.722;9.316;2022-08-21T13:08:48;31.20;48.30
70475;DHT22;57944;48.722;9.316;2022-08-21T13:11:25;32.80;43.90
70475;DHT22;57944;48.722;9.316;2022-08-21T13:14:00;33.80;40.70
70475;DHT22;57944;48.722;9.316;2022-08-21T13:16:34;34.10;39.90
70475;DHT22;57944;48.722;9.316;2022-08-21T13:19:10;34.40;40.70
70475;DHT22;57944;48.722;9.316;2022-08-21T13:21:50;33.90;42.00
70475;DHT22;57944;48.722;9.316;2022-08-21T13:24:25;33.50;40.90
70475;DHT22;57944;48.722;9.316;2022-08-21T13:27:20;33.80;40.80
70475;DHT22;57944;48.722;9.316;2022-08-21T13:30:10;33.10;39.00
70475;DHT22;57944;48.722;9.316;2022-08-21T13:32:44;32.80;39.60
70475;DHT22;57944;48.722;9.316;2022-08-21T13:35:23;32.50;41.00
70475;DHT22;57944;48.722;9.316;2022-08-21T13:37:56;33.20;42.40
70475;DHT22;57944;48.722;9.316;2022-08-21T13:40:29;33.30;40.90
70475;DHT22;57944;48.722;9.316;2022-08-21T13:43:02;33.10;40.70
70475;DHT22;57944;48.722;9.316;2022-08-21T13:45:33;32.90;41.20
70475;DHT22;57944;48.722;9.316;2022-08-21T13:48:03;33.50;41.30
70475;DHT22;57944;48.722;9.316;2022-08-21T13:50:38;34.40;40.90
70475;DHT22;57944;48.722;9.316;2022-08-21T13:53:20;35.50;39.80
70475;DHT22;57944;48.722;9.316;2022-08-21T13:55:53;36.00;39.60
70475;DHT22;57944;48.722;9.316;2022-08-21T13:58:28;36.10;39.20
70475;DHT22;57944;48.722;9.316;2022-08-21T14:01:01;36.40;39.00
70475;DHT22;57944;48.722;9.316;2022-08-21T14:03:34;36.30;37.60
70475;DHT22;57944;48.722;9.316;2022-08-21T14:06:16;36.20;38.00
70475;DHT22;57944;48.722;9.316;2022-08-21T14:08:50;35.90;38.30
70475;DHT22;57944;48.722;9.316;2022-08-21T14:11:23;36.00;37.70
70475;DHT22;57944;48.722;9.316;2022-08-21T14:13:59;35.40;38.10
70475;DHT22;57944;48.722;9.316;2022-08-21T14:16:43;35.20;39.00
70475;DHT22;57944;48.722;9.316;2022-08-21T14:19:20;35.20;39.00
70475;DHT22;57944;48.722;9.316;2022-08-21T14:21:54;35.50;38.70
70475;DHT22;57944;48.722;9.316;2022-08-21T14:24:27;35.20;38.30
70475;DHT22;57944;48.722;9.316;2022-08-21T14:27:04;35.20;38.90
70475;DHT22;57944;48.722;9.316;2022-08-21T14:29:37;35.20;39.20
70475;DHT22;57944;48.722;9.316;2022-08-21T14:32:12;36.10;39.00
70475;DHT22;57944;48.722;9.316;2022-08-21T14:34:51;36.40;39.00
70475;DHT22;57944;48.722;9.316;2022-08-21T14:37:27;36.30;38.30
70475;DHT22;57944;48.722;9.316;2022-08-21T14:39:57;36.50;38.60
70475;DHT22;57944;48.722;9.316;2022-08-21T14:42:28;35.70;38.20
70475;DHT22;57944;48.722;9.316;2022-08-21T14:45:10;36.10;38.40
70475;DHT22;57944;48.722;9.316;2022-08-21T14:47:49;37.00;38.20
70475;DHT22;57944;48.722;9.316;2022-08-21T14:50:19;36.00;38.40
70475;DHT22;57944;48.722;9.316;2022-08-21T14:52:56;36.50;38.30
70475;DHT22;57944;48.722;9.316;2022-08-21T14:55:26;37.00;38.40
70475;DHT22;57944;48.722;9.316;2022-08-21T14:57:57;36.10;37.80
70475;DHT22;57944;48.722;9.316;2022-08-21T15:00:27;35.80;38.80
70475;DHT22;57944;48.722;9.316;2022-08-21T15:03:02;36.40;39.40
70475;DHT22;57944;48.722;9.316;2022-08-21T15:05:32;36.40;38.70
70475;DHT22;57944;48.722;9.316;2022-08-21T15:08:05;36.60;38.40
70475;DHT22;57944;48.722;9.316;2022-08-21T15:10:35;36.40;38.20
70475;DHT22;57944;48.722;9.316;2022-08-21T15:13:25;36.70;38.10
70475;DHT22;57944;48.722;9.316;2022-08-21T15:15:56;35.40;37.30
70475;DHT22;57944;48.722;9.316;2022-08-21T15:18:28;35.70;38.20
70475;DHT22;57944;48.722;9.316;2022-08-21T15:20:59;35.60;38.20
70475;DHT22;57944;48.722;9.316;2022-08-21T15:23:31;36.30;38.20
70475;DHT22;57944;48.722;9.316;2022-08-21T15:26:05;36.20;37.20
70475;DHT22;57944;48.722;9.316;2022-08-21T15:28:36;36.90;37.80
70475;DHT22;57944;48.722;9.316;2022-08-21T15:31:06;35.90;37.90
70475;DHT22;57944;48.722;9.316;2022-08-21T15:33:36;36.40;38.20
70475;DHT22;57944;48.722;9.316;2022-08-21T15:36:07;35.70;37.90
70475;DHT22;57944;48.722;9.316;2022-08-21T15:38:40;35.70;38.90
70475;DHT22;57944;48.722;9.316;2022-08-21T15:41:11;34.80;38.40
70475;DHT22;57944;48.722;9.316;2022-08-21T15:43:44;35.30;38.60
70475;DHT22;57944;48.722;9.316;2022-08-21T15:46:18;35.40;38.40
70475;DHT22;57944;48.722;9.316;2022-08-21T15:48:50;35.70;38.20
70475;DHT22;57944;48.722;9.316;2022-08-21T15:51:25;35.50;37.70
70475;DHT22;57944;48.722;9.316;2022-08-21T15:53:58;35.50;38.10
70475;DHT22;57944;48.722;9.316;2022-08-21T15:56:34;35.70;38.30
70475;DHT22;57944;48.722;9.316;2022-08-21T15:59:12;35.90;38.10
70475;DHT22;57944;48.722;9.316;2022-08-21T16:01:44;35.30;37.80
70475;DHT22;57944;48.722;9.316;2022-08-21T16:04:21;34.90;37.60
70475;DHT22;57944;48.722;9.316;2022-08-21T16:06:53;33.80;38.10
70475;DHT22;57944;48.722;9.316;2022-08-21T16:09:36;33.80;39.00
70475;DHT22;57944;48.722;9.316;2022-08-21T16:12:08;34.20;39.10
70475;DHT22;57944;48.722;9.316;2022-08-21T16:14:40;34.80;39.40
70475;DHT22;57944;48.722;9.316;2022-08-21T16:17:10;34.40;39.20
70475;DHT22;57944;48.722;9.316;2022-08-21T16:19:40;34.00;38.60
70475;DHT22;57944;48.722;9.316;2022-08-21T16:22:11;34.40;38.80
70475;DHT22;57944;48.722;9.316;2022-08-21T16:24:43;34.60;38.90
70475;DHT22;57944;48.722;9.316;2022-08-21T16:27:14;35.30;38.80
70475;DHT22;57944;48.722;9.316;2022-08-21T16:29:45;35.70;37.90